createdAt,value
2023-01-23T00:00:01.271Z,18.00
2023-01-23T00:02:19.605Z,16.85
2023-01-23T00:04:36.809Z,16.52
2023-01-23T00:06:54.764Z,17.10
2023-01-23T00:09:12.425Z,16.42
2023-01-23T00:11:30.512Z,14.82
2023-01-23T00:13:48.737Z,14.30
2023-01-23T00:16:06.052Z,14.48
2023-01-23T00:18:23.515Z,14.85
2023-01-23T00:20:40.822Z,15.00
2023-01-23T00:22:58.157Z,13.70
2023-01-23T00:25:15.513Z,13.18
2023-01-23T00:27:32.912Z,15.27
2023-01-23T00:29:50.177Z,14.77
2023-01-23T00:32:07.143Z,16.73
2023-01-23T00:34:24.298Z,16.27
2023-01-23T00:36:42.399Z,17.40
2023-01-23T00:38:59.725Z,17.05
2023-01-23T00:41:16.787Z,15.68
2023-01-23T00:43:37.080Z,16.80
2023-01-23T00:45:54.456Z,16.95
2023-01-23T00:48:12.113Z,15.30
2023-01-23T00:50:29.103Z,16.25
2023-01-23T00:52:47.565Z,14.25
2023-01-23T00:55:04.590Z,14.75
2023-01-23T00:57:21.889Z,13.77
2023-01-23T00:59:39.022Z,14.48
2023-01-23T01:01:56.497Z,14.70
2023-01-23T01:04:13.862Z,14.48
2023-01-23T01:06:31.393Z,14.32
2023-01-23T01:08:48.491Z,13.13
2023-01-23T01:11:05.939Z,12.13
2023-01-23T01:13:23.387Z,13.45
2023-01-23T01:15:40.347Z,13.50
2023-01-23T01:18:00.122Z,12.80
2023-01-23T01:20:17.676Z,14.00
2023-01-23T01:22:35.321Z,13.48
2023-01-23T01:24:52.473Z,12.15
2023-01-23T01:27:09.791Z,13.38
2023-01-23T01:29:29.198Z,14.43
2023-01-23T01:31:47.698Z,14.80
2023-01-23T01:34:05.123Z,11.85
2023-01-23T01:36:23.400Z,12.13
2023-01-23T01:38:41.414Z,13.35
2023-01-23T01:40:59.768Z,11.20
2023-01-23T01:43:16.765Z,12.05
2023-01-23T01:45:33.745Z,11.43
2023-01-23T01:47:52.000Z,12.98
2023-01-23T01:50:11.465Z,13.35
2023-01-23T01:52:29.638Z,12.82
2023-01-23T01:54:46.630Z,12.98
2023-01-23T01:57:04.165Z,12.80
2023-01-23T01:59:21.251Z,11.73
2023-01-23T02:01:39.262Z,11.60
2023-01-23T02:03:57.330Z,13.88
2023-01-23T02:06:14.470Z,13.43
2023-01-23T02:08:31.652Z,15.15
2023-01-23T02:10:49.681Z,12.45
2023-01-23T02:13:06.756Z,13.05
2023-01-23T02:15:24.121Z,13.73
2023-01-23T02:17:41.570Z,12.20
2023-01-23T02:19:58.664Z,12.18
2023-01-23T02:22:15.668Z,15.82
2023-01-23T02:24:32.961Z,13.57
2023-01-23T02:26:50.115Z,14.32
2023-01-23T02:29:07.413Z,15.00
2023-01-23T02:31:24.548Z,13.13
2023-01-23T02:33:41.909Z,13.38
2023-01-23T02:35:59.068Z,12.60
2023-01-23T02:38:17.234Z,13.52
2023-01-23T02:40:35.283Z,12.95
2023-01-23T02:42:52.588Z,13.48
2023-01-23T02:45:09.658Z,13.20
2023-01-23T02:47:29.454Z,13.55
2023-01-23T02:49:48.956Z,12.73
2023-01-23T02:52:05.993Z,14.13
2023-01-23T02:54:23.125Z,14.02
2023-01-23T02:56:40.161Z,13.73
2023-01-23T02:58:57.216Z,13.05
2023-01-23T03:01:14.499Z,12.95
2023-01-23T03:03:31.555Z,11.75
2023-01-23T03:05:48.537Z,11.30
2023-01-23T03:08:05.455Z,12.75
2023-01-23T03:10:22.581Z,13.68
2023-01-23T03:12:40.934Z,12.13
2023-01-23T03:14:58.019Z,13.60
2023-01-23T03:17:17.743Z,13.57
2023-01-23T03:19:37.493Z,12.70
2023-01-23T03:21:54.846Z,13.52
2023-01-23T03:24:12.088Z,11.52
2023-01-23T03:26:29.125Z,12.30
2023-01-23T03:28:47.425Z,13.60
2023-01-23T03:31:04.863Z,12.18
2023-01-23T03:33:21.947Z,11.75
2023-01-23T03:35:39.981Z,11.82
2023-01-23T03:37:57.368Z,13.38
2023-01-23T03:40:14.491Z,11.75
2023-01-23T03:42:31.650Z,13.45
2023-01-23T03:44:48.763Z,13.20
2023-01-23T03:47:08.479Z,11.98
2023-01-23T03:49:26.774Z,12.65
2023-01-23T03:51:44.754Z,12.48
2023-01-23T03:54:01.790Z,12.85
2023-01-23T03:56:18.859Z,13.02
2023-01-23T03:58:35.957Z,12.50
2023-01-23T04:00:53.068Z,12.45
2023-01-23T04:03:10.187Z,11.15
2023-01-23T04:05:27.781Z,11.20
2023-01-23T04:07:44.925Z,11.13
2023-01-23T04:10:02.219Z,9.73
2023-01-23T04:12:20.179Z,10.43
2023-01-23T04:14:37.161Z,11.95
2023-01-23T04:16:55.208Z,11.85
2023-01-23T04:19:12.263Z,11.82
2023-01-23T04:21:29.285Z,12.20
2023-01-23T04:23:46.537Z,11.45
2023-01-23T04:26:03.416Z,11.80
2023-01-23T04:28:20.339Z,13.18
2023-01-23T04:30:37.335Z,11.05
2023-01-23T04:32:54.369Z,10.60
2023-01-23T04:35:11.435Z,9.73
2023-01-23T04:37:28.668Z,10.65
2023-01-23T04:39:45.906Z,10.80
2023-01-23T04:42:02.965Z,9.68
2023-01-23T04:44:20.061Z,11.75
2023-01-23T04:46:37.142Z,10.13
2023-01-23T04:48:54.178Z,11.38
2023-01-23T04:51:11.489Z,11.98
2023-01-23T04:53:28.822Z,12.50
2023-01-23T04:55:45.795Z,14.82
2023-01-23T04:58:02.829Z,14.05
2023-01-23T05:00:20.187Z,16.80
2023-01-23T05:02:37.720Z,15.25
2023-01-23T05:04:55.975Z,16.38
2023-01-23T05:07:13.305Z,14.85
2023-01-23T05:09:30.506Z,17.77
2023-01-23T05:11:47.525Z,15.30
2023-01-23T05:14:05.077Z,13.63
2023-01-23T05:16:22.043Z,11.68
2023-01-23T05:18:39.341Z,13.18
2023-01-23T05:20:57.656Z,11.43
2023-01-23T05:23:14.709Z,12.02
2023-01-23T05:25:31.768Z,11.50
2023-01-23T05:27:48.980Z,11.73
2023-01-23T05:30:06.243Z,15.43
2023-01-23T05:32:23.246Z,15.07
2023-01-23T05:34:41.418Z,15.60
2023-01-23T05:36:58.698Z,13.98
2023-01-23T05:39:15.731Z,12.95
2023-01-23T05:41:32.712Z,12.57
2023-01-23T05:43:50.011Z,10.85
2023-01-23T05:46:08.022Z,9.90
2023-01-23T05:48:24.931Z,10.73
2023-01-23T05:50:42.218Z,11.25
2023-01-23T05:52:59.203Z,10.20
2023-01-23T05:55:16.501Z,10.88
2023-01-23T05:57:33.838Z,11.57
2023-01-23T05:59:50.884Z,10.15
2023-01-23T06:02:07.910Z,10.82
2023-01-23T06:04:25.182Z,9.55
2023-01-23T06:06:42.260Z,10.15
2023-01-23T06:08:59.196Z,12.13
2023-01-23T06:11:16.265Z,10.90
2023-01-23T06:13:33.264Z,11.50
2023-01-23T06:15:50.313Z,11.10
2023-01-23T06:18:07.377Z,10.48
2023-01-23T06:20:25.418Z,10.55
2023-01-23T06:22:42.473Z,10.65
2023-01-23T06:24:59.499Z,11.82
2023-01-23T06:27:16.811Z,10.68
2023-01-23T06:29:33.852Z,10.35
2023-01-23T06:31:50.960Z,12.98
2023-01-23T06:34:08.029Z,13.75
2023-01-23T06:36:25.316Z,14.30
2023-01-23T06:38:42.251Z,14.10
2023-01-23T06:40:59.234Z,15.30
2023-01-23T06:43:16.503Z,16.27
2023-01-23T06:45:33.773Z,16.08
2023-01-23T06:47:51.692Z,14.77
2023-01-23T06:50:08.703Z,15.18
2023-01-23T06:52:25.987Z,12.57
2023-01-23T06:54:43.002Z,13.35
2023-01-23T06:57:01.369Z,11.52
2023-01-23T06:59:18.683Z,11.50
2023-01-23T07:01:35.755Z,14.18
2023-01-23T07:03:53.079Z,12.80
2023-01-23T07:06:10.127Z,11.70
2023-01-23T07:08:27.120Z,10.82
2023-01-23T07:10:44.861Z,12.35
2023-01-23T07:13:01.842Z,9.88
2023-01-23T07:15:18.848Z,11.15
2023-01-23T07:17:35.790Z,9.80
2023-01-23T07:19:52.824Z,10.43
2023-01-23T07:22:09.827Z,8.65
2023-01-23T07:24:27.080Z,9.93
2023-01-23T07:26:44.134Z,9.30
2023-01-23T07:29:02.165Z,9.30
2023-01-23T07:31:19.537Z,8.70
2023-01-23T07:33:37.838Z,10.23
2023-01-23T07:35:55.183Z,9.93
2023-01-23T07:38:12.422Z,9.60
2023-01-23T07:40:29.481Z,13.63
2023-01-23T07:42:46.803Z,12.75
2023-01-23T07:45:04.643Z,15.15
2023-01-23T07:47:21.734Z,12.65
2023-01-23T07:49:38.803Z,11.00
2023-01-23T07:51:55.835Z,12.32
2023-01-23T07:54:12.830Z,12.45
2023-01-23T07:56:29.875Z,12.70
2023-01-23T07:58:46.903Z,13.55
2023-01-23T08:01:03.917Z,13.40
2023-01-23T08:03:20.875Z,12.18
2023-01-23T08:05:38.143Z,12.18
2023-01-23T08:08:11.385Z,13.93
2023-01-23T08:12:47.490Z,9.93
2023-01-23T08:15:04.583Z,11.70
2023-01-23T08:17:21.662Z,12.95
2023-01-23T08:19:38.667Z,13.88
2023-01-23T08:21:55.685Z,13.43
2023-01-23T08:24:13.077Z,13.85
2023-01-23T08:26:30.073Z,13.13
2023-01-23T08:28:47.318Z,14.10
2023-01-23T08:31:06.567Z,13.95
2023-01-23T08:33:24.007Z,13.60
2023-01-23T08:35:42.024Z,14.68
2023-01-23T08:37:59.303Z,14.05
2023-01-23T08:40:17.531Z,19.90
2023-01-23T08:42:34.605Z,24.27
2023-01-23T08:44:51.671Z,19.67
2023-01-23T08:47:09.018Z,17.17
2023-01-23T08:49:26.230Z,13.50
2023-01-23T08:51:43.525Z,12.27
2023-01-23T08:54:00.549Z,12.02
2023-01-23T08:56:17.835Z,11.13
2023-01-23T08:58:34.756Z,12.32
2023-01-23T09:00:51.836Z,11.10
2023-01-23T09:03:11.096Z,12.38
2023-01-23T09:05:28.642Z,10.00
2023-01-23T09:07:45.543Z,11.23
2023-01-23T09:10:02.534Z,10.88
2023-01-23T09:12:19.769Z,10.75
2023-01-23T09:14:37.005Z,10.57
2023-01-23T09:16:54.089Z,10.20
2023-01-23T09:19:11.497Z,10.30
2023-01-23T09:21:28.508Z,10.35
2023-01-23T09:23:45.594Z,12.02
2023-01-23T09:26:02.799Z,11.60
2023-01-23T09:28:19.836Z,9.63
2023-01-23T09:30:36.792Z,9.15
2023-01-23T09:32:53.688Z,10.73
2023-01-23T09:35:10.731Z,8.88
2023-01-23T09:37:28.069Z,9.52
2023-01-23T09:39:44.934Z,9.05
2023-01-23T09:42:01.958Z,9.43
2023-01-23T09:44:19.273Z,12.35
2023-01-23T09:46:36.600Z,11.00
2023-01-23T09:48:53.546Z,11.48
2023-01-23T09:51:10.588Z,9.32
2023-01-23T09:53:27.915Z,11.02
2023-01-23T09:55:44.986Z,10.43
2023-01-23T09:58:02.204Z,9.32
2023-01-23T10:00:19.541Z,10.27
2023-01-23T10:02:37.825Z,10.75
2023-01-23T10:04:54.904Z,11.02
2023-01-23T10:07:11.891Z,8.65
2023-01-23T10:09:29.125Z,9.68
2023-01-23T10:11:46.382Z,11.15
2023-01-23T10:14:03.677Z,11.13
2023-01-23T10:16:20.752Z,9.40
2023-01-23T10:18:37.701Z,11.80
2023-01-23T10:20:54.704Z,12.13
2023-01-23T10:23:11.780Z,11.00
2023-01-23T10:25:28.744Z,11.32
2023-01-23T10:27:46.050Z,10.57
2023-01-23T10:30:03.121Z,10.45
2023-01-23T10:32:21.159Z,10.45
2023-01-23T10:34:38.451Z,11.52
2023-01-23T10:36:55.417Z,11.65
2023-01-23T10:39:12.689Z,10.98
2023-01-23T10:41:29.823Z,11.85
2023-01-23T10:43:47.132Z,12.40
2023-01-23T10:46:04.414Z,10.75
2023-01-23T10:48:21.716Z,12.13
2023-01-23T10:50:39.001Z,11.95
2023-01-23T10:52:55.998Z,13.50
2023-01-23T10:55:13.996Z,13.68
2023-01-23T10:57:31.037Z,12.75
2023-01-23T10:59:48.360Z,13.93
2023-01-23T11:02:05.634Z,13.73
2023-01-23T11:04:23.759Z,13.35
2023-01-23T11:06:40.794Z,13.85
2023-01-23T11:08:58.857Z,13.25
2023-01-23T11:11:16.140Z,13.02
2023-01-23T11:13:34.160Z,13.15
2023-01-23T11:15:51.205Z,12.27
2023-01-23T11:18:08.547Z,13.60
2023-01-23T11:20:25.538Z,12.85
2023-01-23T11:22:43.484Z,11.85
2023-01-23T11:25:00.694Z,12.68
2023-01-23T11:27:17.740Z,11.10
2023-01-23T11:29:38.099Z,12.52
2023-01-23T11:31:55.316Z,11.77
2023-01-23T11:34:13.813Z,9.90
2023-01-23T11:36:31.190Z,12.15
2023-01-23T11:38:52.735Z,11.65
2023-01-23T11:41:10.207Z,10.77
2023-01-23T11:43:28.158Z,13.43
2023-01-23T11:45:45.399Z,11.13
2023-01-23T11:48:02.730Z,11.55
2023-01-23T11:50:20.711Z,11.27
2023-01-23T11:52:37.730Z,10.90
2023-01-23T11:54:54.688Z,11.38
2023-01-23T11:57:11.969Z,11.73
2023-01-23T11:59:30.208Z,11.55
2023-01-23T12:01:58.426Z,10.52
2023-01-23T12:04:19.996Z,10.43
2023-01-23T12:06:36.947Z,9.57
2023-01-23T12:08:53.878Z,8.48
2023-01-23T12:11:11.197Z,8.90
2023-01-23T12:13:28.268Z,9.07
2023-01-23T12:15:45.526Z,8.20
2023-01-23T12:20:20.188Z,7.72
2023-01-23T12:22:37.538Z,9.75
2023-01-23T12:24:55.058Z,9.30
2023-01-23T12:27:11.982Z,8.43
2023-01-23T12:29:29.112Z,7.97
2023-01-23T12:31:47.710Z,9.43
2023-01-23T12:34:04.864Z,9.20
2023-01-23T12:36:22.040Z,7.90
2023-01-23T12:38:39.106Z,9.27
2023-01-23T12:40:57.112Z,9.85
2023-01-23T12:43:14.552Z,9.00
2023-01-23T12:45:31.996Z,8.25
2023-01-23T12:47:51.685Z,9.75
2023-01-23T12:50:08.821Z,8.40
2023-01-23T12:52:26.143Z,9.30
2023-01-23T12:54:43.530Z,9.32
2023-01-23T12:57:00.475Z,10.40
2023-01-23T12:59:21.948Z,11.57
2023-01-23T13:01:39.477Z,9.35
2023-01-23T13:03:56.802Z,8.90
2023-01-23T13:06:14.359Z,67.45
2023-01-23T13:08:37.847Z,67.45
2023-01-23T13:10:55.485Z,34.35
2023-01-23T13:13:12.462Z,22.15
2023-01-23T13:15:39.519Z,11.52
2023-01-23T13:17:57.342Z,25.92
2023-01-23T13:20:14.383Z,16.38
2023-01-23T13:22:32.691Z,17.17
2023-01-23T13:24:50.173Z,13.93
2023-01-23T13:27:07.539Z,13.73
2023-01-23T13:29:24.809Z,10.85
2023-01-23T13:31:42.022Z,9.75
2023-01-23T13:34:14.528Z,9.23
2023-01-23T13:36:40.311Z,9.52
2023-01-23T13:38:57.534Z,9.52
2023-01-23T13:41:14.638Z,8.95
2023-01-23T13:43:31.977Z,10.80
2023-01-23T13:45:50.307Z,10.80
2023-01-23T14:20:51.215Z,8.07
2023-01-23T14:23:09.549Z,8.30
2023-01-23T14:25:26.812Z,8.02
2023-01-23T14:27:52.895Z,8.60
2023-01-23T14:30:11.031Z,8.20
2023-01-23T14:32:28.063Z,7.82
2023-01-23T14:34:46.073Z,9.77
2023-01-23T14:37:03.043Z,9.70
2023-01-23T14:39:20.116Z,12.50
2023-01-23T14:41:41.184Z,10.73
2023-01-23T14:43:58.791Z,10.90
2023-01-23T14:46:15.801Z,10.35
2023-01-23T14:48:32.871Z,14.13
2023-01-23T14:50:49.823Z,10.65
2023-01-23T14:53:06.899Z,9.25
2023-01-23T14:55:29.897Z,7.80
2023-01-23T14:57:47.520Z,9.18
2023-01-23T15:00:04.789Z,7.93
2023-01-23T15:02:21.830Z,8.55
2023-01-23T15:04:38.838Z,9.18
2023-01-23T15:06:57.170Z,9.00
2023-01-23T15:09:14.254Z,8.88
2023-01-23T15:11:31.266Z,8.13
2023-01-23T15:13:48.559Z,8.57
2023-01-23T15:16:05.598Z,8.10
2023-01-23T15:18:22.543Z,9.23
2023-01-23T15:20:40.817Z,8.68
2023-01-23T15:22:58.138Z,10.15
2023-01-23T15:25:16.427Z,12.02
2023-01-23T15:27:33.434Z,9.60
2023-01-23T15:29:50.510Z,11.65
2023-01-23T15:32:08.595Z,12.52
2023-01-23T15:34:25.758Z,16.35
2023-01-23T15:36:42.734Z,15.27
2023-01-23T15:38:59.820Z,14.98
2023-01-23T15:41:23.772Z,14.68
2023-01-23T15:43:44.841Z,15.70
2023-01-23T15:46:01.964Z,18.00
2023-01-23T15:48:21.916Z,13.70
2023-01-23T15:50:38.922Z,17.67
2023-01-23T15:52:56.433Z,15.50
2023-01-23T15:55:13.554Z,15.27
2023-01-23T15:57:32.981Z,16.10
2023-01-23T15:59:52.712Z,14.88
2023-01-23T16:02:24.785Z,13.95
2023-01-23T16:04:46.662Z,14.38
2023-01-23T16:07:04.931Z,17.30
2023-01-23T16:09:22.209Z,14.95
2023-01-23T16:11:39.147Z,16.55
2023-01-23T16:13:58.685Z,15.43
2023-01-23T16:16:17.042Z,15.40
2023-01-23T16:18:34.171Z,14.88
2023-01-23T16:20:51.273Z,16.92
2023-01-23T16:23:14.535Z,16.70
2023-01-23T16:28:03.274Z,18.15
2023-01-23T16:30:20.306Z,16.10
2023-01-23T16:32:38.711Z,17.40
2023-01-23T16:34:55.865Z,16.17
2023-01-23T16:37:12.938Z,16.65
2023-01-23T16:39:30.023Z,18.17
2023-01-23T16:41:47.125Z,18.52
2023-01-23T16:44:04.395Z,18.25
2023-01-23T16:46:21.811Z,18.00
2023-01-23T16:48:39.209Z,16.27
2023-01-23T16:50:56.344Z,16.77
2023-01-23T16:53:13.373Z,15.23
2023-01-23T16:55:30.809Z,15.02
2023-01-23T16:57:48.981Z,14.63
2023-01-23T17:00:06.092Z,17.35
2023-01-23T17:02:23.380Z,14.90
2023-01-23T17:04:40.694Z,19.08
2023-01-23T17:06:57.706Z,17.65
2023-01-23T17:09:15.125Z,15.93
2023-01-23T17:11:32.190Z,17.77
2023-01-23T17:13:49.573Z,16.38
2023-01-23T17:16:21.866Z,15.98
2023-01-23T17:18:43.600Z,20.90
2023-01-23T17:21:00.647Z,18.10
2023-01-23T17:23:17.681Z,17.02
2023-01-23T17:25:35.406Z,17.73
2023-01-23T17:28:11.587Z,16.98
2023-01-23T17:30:29.359Z,16.77
2023-01-23T17:32:46.302Z,15.98
2023-01-23T17:35:03.541Z,17.45
2023-01-23T17:37:20.591Z,17.30
2023-01-23T17:39:37.625Z,18.70
2023-01-23T17:41:54.566Z,18.40
2023-01-23T17:44:11.731Z,16.40
2023-01-23T17:46:30.080Z,17.20
2023-01-23T17:48:48.172Z,14.80
2023-01-23T17:51:05.224Z,15.73
2023-01-23T17:53:22.512Z,19.25
2023-01-23T17:55:40.161Z,17.95
2023-01-23T17:57:58.321Z,18.65
2023-01-23T18:00:15.241Z,17.60
2023-01-23T18:02:32.302Z,18.23
2023-01-23T18:04:49.353Z,16.70
2023-01-23T18:07:06.568Z,16.92
2023-01-23T18:09:23.641Z,15.80
2023-01-23T18:11:41.820Z,17.88
2023-01-23T18:14:00.016Z,22.10
2023-01-23T18:16:17.323Z,23.77
2023-01-23T18:18:34.247Z,17.42
2023-01-23T18:20:51.597Z,20.83
2023-01-23T18:23:09.783Z,15.88
2023-01-23T18:25:27.101Z,18.02
2023-01-23T18:27:45.166Z,17.38
2023-01-23T18:30:02.220Z,18.63
2023-01-23T18:32:19.225Z,17.65
2023-01-23T18:34:36.259Z,18.95
2023-01-23T18:36:53.336Z,17.40
2023-01-23T18:39:10.651Z,18.05
2023-01-23T18:41:27.721Z,17.95
2023-01-23T18:43:46.047Z,14.85
2023-01-23T18:46:03.014Z,17.80
2023-01-23T18:48:25.495Z,22.15
2023-01-23T18:50:42.734Z,20.55
2023-01-23T18:53:00.015Z,23.63
2023-01-23T18:55:17.306Z,21.52
2023-01-23T18:57:34.296Z,21.80
2023-01-23T18:59:51.318Z,23.30
2023-01-23T19:02:08.904Z,23.55
2023-01-23T19:04:26.055Z,27.17
2023-01-23T19:06:43.189Z,22.08
2023-01-23T19:09:01.140Z,20.48
2023-01-23T19:11:18.454Z,18.52
2023-01-23T19:13:35.525Z,17.63
2023-01-23T19:15:52.830Z,17.23
2023-01-23T19:18:09.799Z,17.30
2023-01-23T19:20:27.107Z,17.80
2023-01-23T19:22:44.039Z,16.45
2023-01-23T19:25:00.978Z,18.23
2023-01-23T19:27:18.237Z,16.73
2023-01-23T19:29:35.261Z,21.58
2023-01-23T19:32:05.047Z,20.98
2023-01-23T19:34:24.076Z,18.50
2023-01-23T19:36:41.097Z,19.42
2023-01-23T19:38:59.304Z,20.42
2023-01-23T19:41:16.536Z,19.45
2023-01-23T19:43:33.528Z,16.95
2023-01-23T19:45:51.525Z,18.48
2023-01-23T19:48:08.441Z,15.55
2023-01-23T19:50:26.453Z,17.77
2023-01-23T19:52:43.624Z,17.85
2023-01-23T19:55:00.914Z,15.30
2023-01-23T19:57:18.046Z,15.48
2023-01-23T19:59:35.317Z,15.13
2023-01-23T20:01:52.304Z,17.50
2023-01-23T20:04:09.362Z,17.27
2023-01-23T20:06:26.344Z,19.10
2023-01-23T20:08:43.399Z,19.05
2023-01-23T20:11:00.757Z,16.65
2023-01-23T20:13:18.059Z,15.13
2023-01-23T20:15:35.122Z,15.88
2023-01-23T20:17:52.173Z,17.40
2023-01-23T20:20:09.503Z,15.75
2023-01-23T20:22:26.514Z,16.85
2023-01-23T20:24:43.490Z,17.00
2023-01-23T20:27:00.505Z,16.95
2023-01-23T20:29:17.705Z,15.85
2023-01-23T20:31:34.923Z,16.17
2023-01-23T20:33:52.381Z,17.75
2023-01-23T20:36:09.459Z,17.40
2023-01-23T20:38:26.746Z,17.08
2023-01-23T20:40:43.824Z,17.15
2023-01-23T20:43:00.938Z,17.17
2023-01-23T20:45:17.996Z,17.35
2023-01-23T20:47:36.232Z,16.40
2023-01-23T20:49:53.322Z,17.08
2023-01-23T20:52:10.568Z,16.83
2023-01-23T20:54:27.552Z,20.17
2023-01-23T20:56:45.931Z,17.83
2023-01-23T20:59:02.909Z,20.27
2023-01-23T21:01:20.283Z,17.08
2023-01-23T21:03:37.682Z,17.00
2023-01-23T21:05:55.196Z,19.13
2023-01-23T21:08:12.517Z,18.33
2023-01-23T21:10:30.851Z,19.38
2023-01-23T21:12:48.511Z,20.90
2023-01-23T21:15:05.837Z,22.52
2023-01-23T21:17:23.893Z,19.42
2023-01-23T21:19:41.011Z,20.45
2023-01-23T21:21:58.100Z,21.25
2023-01-23T21:24:15.184Z,19.33
2023-01-23T21:26:33.508Z,18.38
2023-01-23T21:28:50.755Z,18.10
2023-01-23T21:31:08.909Z,17.65
2023-01-23T21:33:26.356Z,17.52
2023-01-23T21:35:43.479Z,18.25
2023-01-23T21:38:00.575Z,18.10
2023-01-23T21:40:17.557Z,20.38
2023-01-23T21:42:34.853Z,21.00
2023-01-23T21:44:51.833Z,18.60
2023-01-23T21:47:08.845Z,17.00
2023-01-23T21:49:25.803Z,19.35
2023-01-23T21:51:42.795Z,16.42
2023-01-23T21:53:59.825Z,19.00
2023-01-23T21:56:17.564Z,19.00
2023-01-23T21:58:35.801Z,19.63
2023-01-23T22:00:53.218Z,19.25
2023-01-23T22:03:11.261Z,18.48
2023-01-23T22:05:28.628Z,18.25
2023-01-23T22:07:45.686Z,19.27
2023-01-23T22:10:02.845Z,18.27
2023-01-23T22:12:21.198Z,23.17
2023-01-23T22:14:38.265Z,18.27
2023-01-23T22:16:56.592Z,21.00
2023-01-23T22:19:15.784Z,19.75
2023-01-23T22:21:33.063Z,20.05
2023-01-23T22:23:50.361Z,18.65
2023-01-23T22:26:08.413Z,22.83
2023-01-23T22:28:26.299Z,20.25
2023-01-23T22:30:43.578Z,20.27
2023-01-23T22:33:00.682Z,19.27
2023-01-23T22:35:18.044Z,18.98
2023-01-23T22:37:35.376Z,18.33
2023-01-23T22:39:52.456Z,19.45
2023-01-23T22:42:10.792Z,17.98
2023-01-23T22:44:27.831Z,17.05
2023-01-23T22:46:45.135Z,16.45
2023-01-23T22:49:02.199Z,19.27
2023-01-23T22:51:19.505Z,19.15
2023-01-23T22:53:36.829Z,18.70
2023-01-23T22:55:53.938Z,17.90
2023-01-23T22:58:11.018Z,18.42
2023-01-23T23:00:28.480Z,18.60
2023-01-23T23:02:45.577Z,18.10
2023-01-23T23:05:02.568Z,16.60
2023-01-23T23:07:19.645Z,17.13
2023-01-23T23:09:36.988Z,17.85
2023-01-23T23:11:54.410Z,18.63
2023-01-23T23:14:11.688Z,17.88
2023-01-23T23:16:28.868Z,16.65
2023-01-23T23:18:47.013Z,17.63
2023-01-23T23:21:03.984Z,19.15
2023-01-23T23:23:21.504Z,16.88
2023-01-23T23:25:38.649Z,16.95
2023-01-23T23:27:56.134Z,18.08
2023-01-23T23:30:14.064Z,17.83
2023-01-23T23:32:31.151Z,18.13
2023-01-23T23:34:48.224Z,19.20
2023-01-23T23:37:05.259Z,19.88
2023-01-23T23:39:22.536Z,19.17
2023-01-23T23:41:39.642Z,19.30
2023-01-23T23:43:56.713Z,19.80
2023-01-23T23:46:14.098Z,17.60
2023-01-23T23:48:31.203Z,18.15
2023-01-23T23:50:48.352Z,17.85
2023-01-23T23:53:05.733Z,18.75
2023-01-23T23:55:23.390Z,18.60
2023-01-23T23:57:41.102Z,18.40
2023-01-23T23:59:58.693Z,17.95
